• Join FlightAware (Why Join?)
  • Login
  • US Flag 
01:09PM EST


 

Airport Tracker/Info


-or-


 

Live Flight TrackerFlight Track Log ✈ EJA929 ✈ 11-Dec-2013 ✈ KRAC - KMDW

Flight Track Log - Related Links

Times and Time Zones

All times are in EST time to prevent confusion due to time zone crossing. See the EJA929 flight status page for this flight to view local times or setup timezone preferences in your user account.

Time Position Orientation Groundspeed Altitude Reporting Facility
EST Latitude Longitude Course Direction KTS MPH feet Rate Location/Type
09:23PM 42.7500 -87.8167 153° Southeast 133 153 1,100  Level KMKE
09:25PM 42.6756 -87.7658 153° Southeast 235 270 3,800 1,080 Climbing Chicago Center
09:26PM 42.6197 -87.7178 148° Southeast 239 275 4,000 120 Climbing Chicago Center
09:27PM 42.5619 -87.6831 156° South 230 265 4,100  Climbing Chicago Center
09:28PM 42.4856 -87.6361 156° South 258 297 4,100 -120 Level Chicago Center
09:29PM 42.4167 -87.5978 158° South 268 308 3,900 -540 Descending Chicago Center
09:30PM 42.3469 -87.5569 157° South 262 302 3,100 -420 Descending Chicago Center
09:31PM 42.2939 -87.5231 155° Southeast 235 270 3,100  Level Chicago Center
09:32PM 42.2406 -87.4906 156° South 221 254 3,100  Level Chicago Center
09:33PM 42.1858 -87.4558 155° Southeast 216 249 3,100  Level Chicago Center
09:34PM 42.1325 -87.4231 155° Southeast 214 246 3,100  Level Chicago Center
09:35PM 42.0783 -87.3892 155° Southeast 214 246 3,100  Level Chicago Center
09:36PM 42.0250 -87.3547 154° Southeast 213 245 3,100  Level Chicago Center
09:37PM 41.9550 -87.3603 183° South 214 246 3,100 -300 Level Chicago Center
09:38PM 41.9000 -87.3767 193° South 208 239 2,600 -300 Descending Chicago Center
09:39PM 41.8450 -87.3942 193° South 205 236 2,600  Level Chicago Center
09:40PM 41.8117 -87.4456 229° Southwest 199 229 2,600 -120 Level Chicago Center
09:41PM 41.7819 -87.5075 237° Southwest 199 229 2,400 -300 Descending Chicago Center
09:42PM 41.7533 -87.5689 238° Southwest 196 226 2,100 -180 Descending Chicago Center
09:43PM 41.7239 -87.6336 239° Southwest 200 230 2,100 -60 Level Chicago Center
09:44PM 41.7392 -87.6886 290° West 180 207 2,000 -540 Descending Chicago Center
09:45PM 41.7697 -87.7317 314° West 153 176 1,100 -900 Descending Chicago Center